createdAt,value
2017-04-24T00:00:32.564Z,1017.84
2017-04-24T00:01:42.789Z,1017.79
2017-04-24T00:02:52.983Z,1017.73
2017-04-24T00:04:02.898Z,1017.73
2017-04-24T00:05:13.102Z,1017.71
2017-04-24T00:06:23.306Z,1017.68
2017-04-24T00:07:33.214Z,1017.68
2017-04-24T00:08:43.062Z,1017.68
2017-04-24T00:09:53.280Z,1017.65
2017-04-24T00:11:03.490Z,1017.63
2017-04-24T00:12:13.084Z,1017.59
2017-04-24T00:13:23.304Z,1017.59
2017-04-24T00:14:33.651Z,1017.58
2017-04-24T00:15:43.235Z,1017.58
2017-04-24T00:16:53.457Z,1017.56
2017-04-24T00:18:02.756Z,1017.55
2017-04-24T00:19:11.745Z,1017.51
2017-04-24T00:20:21.618Z,1017.54
2017-04-24T00:21:30.904Z,1017.5
2017-04-24T00:22:41.108Z,1017.47
2017-04-24T00:23:51.002Z,1017.52
2017-04-24T00:25:01.209Z,1017.51
2017-04-24T00:26:10.958Z,1017.46
2017-04-24T00:27:20.879Z,1017.45
2017-04-24T00:28:31.444Z,1017.47
2017-04-24T00:29:41.657Z,1017.47
2017-04-24T00:30:51.559Z,1017.42
2017-04-24T00:32:01.396Z,1017.4
2017-04-24T00:33:11.309Z,1017.39
2017-04-24T00:34:20.303Z,1017.39
2017-04-24T00:35:30.515Z,1017.37
2017-04-24T00:36:40.105Z,1017.38
2017-04-24T00:37:50.622Z,1017.35
2017-04-24T00:39:00.211Z,1017.34
2017-04-24T00:40:10.110Z,1017.3
2017-04-24T00:41:20.327Z,1017.32
2017-04-24T00:42:30.225Z,1017.3
2017-04-24T00:43:40.221Z,1017.31
2017-04-24T00:44:50.434Z,1017.3
2017-04-24T00:46:00.339Z,1017.29
2017-04-24T00:47:10.542Z,1017.23
2017-04-24T00:48:20.740Z,1017.21
2017-04-24T00:49:30.954Z,1017.17
2017-04-24T00:50:41.160Z,1017.22
2017-04-24T00:51:51.368Z,1017.18
2017-04-24T00:53:01.251Z,1017.14
2017-04-24T00:54:11.138Z,1017.16
2017-04-24T00:55:21.499Z,1017.16
2017-04-24T00:56:31.703Z,1017.13
2017-04-24T00:57:41.930Z,1017.18
2017-04-24T00:58:52.132Z,1017.13
2017-04-24T01:00:02.049Z,1017.14
2017-04-24T01:01:11.686Z,1017.12
2017-04-24T01:02:21.272Z,1017.11
2017-04-24T01:03:31.490Z,1017.07
2017-04-24T01:04:41.697Z,1017.04
2017-04-24T01:05:51.288Z,1017.05
2017-04-24T01:07:01.742Z,1017.03
2017-04-24T01:08:11.643Z,1017.03
2017-04-24T01:09:21.545Z,1017.05
2017-04-24T01:10:31.140Z,1017.04
2017-04-24T01:11:41.357Z,1017.04
2017-04-24T01:12:51.288Z,1017.04
2017-04-24T01:14:01.194Z,1017.02
2017-04-24T01:15:10.484Z,1017.04
2017-04-24T01:16:20.381Z,1017
2017-04-24T01:17:30.585Z,1017.01
2017-04-24T01:18:40.953Z,1016.98
2017-04-24T01:19:50.866Z,1016.97
2017-04-24T01:21:00.787Z,1016.95
2017-04-24T01:22:10.675Z,1016.92
2017-04-24T01:23:20.872Z,1016.93
2017-04-24T01:24:31.065Z,1016.93
2017-04-24T01:25:40.960Z,1016.94
2017-04-24T01:26:51.172Z,1016.93
2017-04-24T01:28:01.064Z,1016.88
2017-04-24T01:29:10.647Z,1016.86
2017-04-24T01:30:20.486Z,1016.85
2017-04-24T01:31:30.450Z,1016.8
2017-04-24T01:32:40.654Z,1016.75
2017-04-24T01:33:50.249Z,1016.77
2017-04-24T01:35:00.485Z,1016.75
2017-04-24T01:36:09.626Z,1016.71
2017-04-24T01:37:19.843Z,1016.69
2017-04-24T01:38:29.447Z,1016.66
2017-04-24T01:39:39.338Z,1016.63
2017-04-24T01:40:48.981Z,1016.57
2017-04-24T01:41:59.148Z,1016.56
2017-04-24T01:43:08.740Z,1016.56
2017-04-24T01:44:18.374Z,1016.53
2017-04-24T01:45:28.274Z,1016.52
2017-04-24T01:46:38.182Z,1016.51
2017-04-24T01:47:48.237Z,1016.51
2017-04-24T01:48:58.134Z,1016.54
2017-04-24T01:50:08.045Z,1016.51
2017-04-24T01:51:17.935Z,1016.55
2017-04-24T01:52:27.222Z,1016.55
2017-04-24T01:53:37.392Z,1016.55
2017-04-24T01:54:47.602Z,1016.5
2017-04-24T01:55:57.494Z,1016.5
2017-04-24T01:57:07.078Z,1016.51
2017-04-24T01:58:17.289Z,1016.45
2017-04-24T01:59:27.640Z,1016.47
2017-04-24T02:00:37.245Z,1016.48
2017-04-24T02:01:47.141Z,1016.52
2017-04-24T02:02:57.344Z,1016.53
2017-04-24T02:04:06.939Z,1016.55
2017-04-24T02:05:17.465Z,1016.6
2017-04-24T02:06:27.361Z,1016.59
2017-04-24T02:07:36.962Z,1016.58
2017-04-24T02:08:46.560Z,1016.57
2017-04-24T02:09:56.772Z,1016.62
2017-04-24T02:11:07.284Z,1016.58
2017-04-24T02:12:17.502Z,1016.6
2017-04-24T02:13:27.413Z,1016.61
2017-04-24T02:14:37.633Z,1016.64
2017-04-24T02:15:47.539Z,1016.63
2017-04-24T02:16:57.426Z,1016.57
2017-04-24T02:18:06.707Z,1016.56
2017-04-24T02:19:16.613Z,1016.54
2017-04-24T02:20:26.816Z,1016.52
2017-04-24T02:21:36.407Z,1016.51
2017-04-24T02:22:45.954Z,1016.51
2017-04-24T02:23:55.856Z,1016.45
2017-04-24T02:25:05.753Z,1016.44
2017-04-24T02:26:15.648Z,1016.38
2017-04-24T02:27:25.553Z,1016.39
2017-04-24T02:28:36.002Z,1016.38
2017-04-24T02:29:46.200Z,1016.4
2017-04-24T02:30:56.412Z,1016.39
2017-04-24T02:32:06.308Z,1016.33
2017-04-24T02:33:16.201Z,1016.36
2017-04-24T02:34:26.104Z,1016.34
2017-04-24T02:35:36.310Z,1016.33
2017-04-24T02:36:46.512Z,1016.31
2017-04-24T02:37:56.730Z,1016.28
2017-04-24T02:39:06.620Z,1016.24
2017-04-24T02:40:16.865Z,1016.17
2017-04-24T02:41:26.767Z,1016.18
2017-04-24T02:42:36.970Z,1016.12
2017-04-24T02:43:46.558Z,1016.15
2017-04-24T02:44:56.779Z,1016.11
2017-04-24T02:46:07.241Z,1016.07
2017-04-24T02:47:16.830Z,1016.09
2017-04-24T02:48:27.043Z,1016.04
2017-04-24T02:49:36.940Z,1016.05
2017-04-24T02:50:46.549Z,1016.03
2017-04-24T02:51:56.798Z,1016.04
2017-04-24T02:53:06.707Z,1016.01
2017-04-24T02:54:16.612Z,1015.97
2017-04-24T02:55:26.199Z,1015.98
2017-04-24T02:56:36.093Z,1015.96
2017-04-24T02:57:46.410Z,1015.96
2017-04-24T02:58:56.317Z,1015.91
2017-04-24T03:00:06.530Z,1015.91
2017-04-24T03:01:15.815Z,1015.86
2017-04-24T03:02:26.030Z,1015.86
2017-04-24T03:03:36.036Z,1015.86
2017-04-24T03:04:45.626Z,1015.88
2017-04-24T03:05:55.224Z,1015.85
2017-04-24T03:07:05.133Z,1015.83
2017-04-24T03:08:14.719Z,1015.86
2017-04-24T03:09:25.230Z,1015.83
2017-04-24T03:10:35.440Z,1015.77
2017-04-24T03:11:45.646Z,1015.79
2017-04-24T03:12:55.853Z,1015.77
2017-04-24T03:14:05.149Z,1015.77
2017-04-24T03:15:15.371Z,1015.72
2017-04-24T03:16:25.274Z,1015.71
2017-04-24T03:17:35.484Z,1015.71
2017-04-24T03:18:45.392Z,1015.68
2017-04-24T03:19:55.605Z,1015.68
2017-04-24T03:21:05.620Z,1015.69
2017-04-24T03:22:15.207Z,1015.67
2017-04-24T03:23:25.108Z,1015.69
2017-04-24T03:24:35.330Z,1015.67
2017-04-24T03:25:44.922Z,1015.65
2017-04-24T03:26:55.446Z,1015.67
2017-04-24T03:28:05.654Z,1015.67
2017-04-24T03:29:15.568Z,1015.6
2017-04-24T03:30:25.462Z,1015.61
2017-04-24T03:31:35.352Z,1015.58
2017-04-24T03:32:45.510Z,1015.57
2017-04-24T03:33:55.732Z,1015.56
2017-04-24T03:35:05.647Z,1015.56
2017-04-24T03:36:15.542Z,1015.58
2017-04-24T03:37:25.760Z,1015.54
2017-04-24T03:38:36.313Z,1015.49
2017-04-24T03:39:46.214Z,1015.47
2017-04-24T03:40:56.112Z,1015.47
2017-04-24T03:42:06.330Z,1015.4
2017-04-24T03:43:16.226Z,1015.38
2017-04-24T03:44:26.170Z,1015.38
2017-04-24T03:45:36.068Z,1015.34
2017-04-24T03:46:46.279Z,1015.35
2017-04-24T03:47:55.862Z,1015.29
2017-04-24T03:49:05.494Z,1015.28
2017-04-24T03:50:16.025Z,1015.3
2017-04-24T03:51:25.626Z,1015.25
2017-04-24T03:52:35.214Z,1015.25
2017-04-24T03:53:45.419Z,1015.26
2017-04-24T03:54:55.625Z,1015.27
2017-04-24T03:56:05.157Z,1015.3
2017-04-24T03:57:15.069Z,1015.27
2017-04-24T03:58:24.965Z,1015.26
2017-04-24T03:59:35.165Z,1015.27
2017-04-24T04:00:45.365Z,1015.25
2017-04-24T04:01:55.218Z,1015.24
2017-04-24T04:03:05.133Z,1015.24
2017-04-24T04:04:14.413Z,1015.26
2017-04-24T04:05:24.319Z,1015.24
2017-04-24T04:06:34.543Z,1015.22
2017-04-24T04:07:44.558Z,1015.24
2017-04-24T04:08:54.464Z,1015.25
2017-04-24T04:10:04.075Z,1015.21
2017-04-24T04:11:13.664Z,1015.24
2017-04-24T04:12:23.569Z,1015.19
2017-04-24T04:13:33.937Z,1015.22
2017-04-24T04:14:44.228Z,1015.16
2017-04-24T04:15:54.193Z,1015.2
2017-04-24T04:17:03.776Z,1015.18
2017-04-24T04:18:13.674Z,1015.16
2017-04-24T04:19:23.414Z,1015.2
2017-04-24T04:20:33.326Z,1015.12
2017-04-24T04:21:43.242Z,1015.16
2017-04-24T04:22:53.445Z,1015.15
2017-04-24T04:24:03.656Z,1015.11
2017-04-24T04:25:13.503Z,1015.09
2017-04-24T04:26:23.741Z,1015.12
2017-04-24T04:27:33.348Z,1015.11
2017-04-24T04:28:42.646Z,1015.06
2017-04-24T04:29:52.846Z,1015.09
2017-04-24T04:31:03.350Z,1015.04
2017-04-24T04:32:12.954Z,1015.01
2017-04-24T04:33:23.184Z,1014.98
2017-04-24T04:34:33.406Z,1014.95
2017-04-24T04:35:43.343Z,1014.94
2017-04-24T04:36:53.819Z,1014.92
2017-04-24T04:38:04.027Z,1014.91
2017-04-24T04:39:13.948Z,1014.93
2017-04-24T04:40:24.215Z,1014.94
2017-04-24T04:41:33.819Z,1014.96
2017-04-24T04:42:43.714Z,1014.89
2017-04-24T04:43:53.321Z,1014.92
2017-04-24T04:45:02.925Z,1014.93
2017-04-24T04:46:13.165Z,1014.9
2017-04-24T04:47:22.759Z,1014.92
2017-04-24T04:48:33.166Z,1014.9
2017-04-24T04:49:43.414Z,1014.87
2017-04-24T04:50:53.339Z,1014.86
2017-04-24T04:52:03.564Z,1014.92
2017-04-24T04:53:12.865Z,1014.86
2017-04-24T04:54:23.239Z,1014.87
2017-04-24T04:55:33.147Z,1014.86
2017-04-24T04:56:43.056Z,1014.86
2017-04-24T04:57:52.641Z,1014.89
2017-04-24T04:59:02.855Z,1014.9
2017-04-24T05:00:12.914Z,1014.85
2017-04-24T05:01:22.841Z,1014.87
2017-04-24T05:02:32.765Z,1014.84
2017-04-24T05:03:43.023Z,1014.83
2017-04-24T05:04:53.448Z,1014.86
2017-04-24T05:06:03.403Z,1014.84
2017-04-24T05:07:13.628Z,1014.85
2017-04-24T05:08:23.872Z,1014.89
2017-04-24T05:09:33.788Z,1014.89
2017-04-24T05:10:43.697Z,1014.91
2017-04-24T05:11:54.157Z,1014.89
2017-04-24T05:13:04.065Z,1014.92
2017-04-24T05:14:13.361Z,1014.9
2017-04-24T05:15:22.967Z,1014.91
2017-04-24T05:16:32.869Z,1014.83
2017-04-24T05:17:43.438Z,1014.82
2017-04-24T05:18:53.355Z,1014.8
2017-04-24T05:20:03.272Z,1014.83
2017-04-24T05:21:12.574Z,1014.81
2017-04-24T05:22:22.173Z,1014.77
2017-04-24T05:23:31.910Z,1014.81
2017-04-24T05:24:42.120Z,1014.75
2017-04-24T05:25:51.423Z,1014.77
2017-04-24T05:27:01.327Z,1014.74
2017-04-24T05:28:11.231Z,1014.75
2017-04-24T05:29:21.401Z,1014.77
2017-04-24T05:30:31.632Z,1014.7
2017-04-24T05:31:40.935Z,1014.67
2017-04-24T05:32:50.529Z,1014.68
2017-04-24T05:34:00.740Z,1014.68
2017-04-24T05:35:10.893Z,1014.67
2017-04-24T05:36:20.496Z,1014.66
2017-04-24T05:37:30.711Z,1014.65
2017-04-24T05:38:40.940Z,1014.69
2017-04-24T05:39:50.540Z,1014.68
2017-04-24T05:41:00.908Z,1014.69
2017-04-24T05:42:11.123Z,1014.67
2017-04-24T05:43:21.031Z,1014.63
2017-04-24T05:44:31.240Z,1014.63
2017-04-24T05:45:41.446Z,1014.62
2017-04-24T05:46:51.157Z,1014.65
2017-04-24T05:48:01.056Z,1014.64
2017-04-24T05:49:10.649Z,1014.63
2017-04-24T05:50:20.865Z,1014.65
2017-04-24T05:51:30.464Z,1014.67
2017-04-24T05:52:40.665Z,1014.66
2017-04-24T05:53:50.263Z,1014.65
2017-04-24T05:54:59.873Z,1014.64
2017-04-24T05:56:09.774Z,1014.68
2017-04-24T05:57:19.978Z,1014.64
2017-04-24T05:58:29.525Z,1014.62
2017-04-24T05:59:39.437Z,1014.68
2017-04-24T06:00:49.346Z,1014.65
2017-04-24T06:01:58.643Z,1014.65
2017-04-24T06:03:07.930Z,1014.68
2017-04-24T06:04:18.685Z,1014.65
2017-04-24T06:05:28.623Z,1014.6
2017-04-24T06:06:38.836Z,1014.64
2017-04-24T06:07:48.430Z,1014.62
2017-04-24T06:08:57.707Z,1014.6
2017-04-24T06:10:08.237Z,1014.59
2017-04-24T06:11:17.841Z,1014.65
2017-04-24T06:12:28.061Z,1014.63
2017-04-24T06:13:37.673Z,1014.65
2017-04-24T06:14:47.893Z,1014.6
2017-04-24T06:15:58.105Z,1014.61
2017-04-24T06:17:08.311Z,1014.61
2017-04-24T06:18:17.600Z,1014.63
2017-04-24T06:19:27.822Z,1014.61
2017-04-24T06:20:37.726Z,1014.59
2017-04-24T06:21:47.629Z,1014.61
2017-04-24T06:22:57.541Z,1014.58
2017-04-24T06:24:07.750Z,1014.61
2017-04-24T06:25:17.347Z,1014.6
2017-04-24T06:26:27.559Z,1014.58
2017-04-24T06:27:37.710Z,1014.66
2017-04-24T06:28:47.623Z,1014.63
2017-04-24T06:29:57.551Z,1014.6
2017-04-24T06:31:07.456Z,1014.62
2017-04-24T06:32:17.360Z,1014.59
2017-04-24T06:33:27.529Z,1014.64
2017-04-24T06:34:37.444Z,1014.63
2017-04-24T06:35:47.661Z,1014.66
2017-04-24T06:36:57.572Z,1014.65
2017-04-24T06:38:07.504Z,1014.65
2017-04-24T06:39:17.870Z,1014.66
2017-04-24T06:40:28.090Z,1014.61
2017-04-24T06:41:38.002Z,1014.62
2017-04-24T06:42:48.212Z,1014.58
2017-04-24T06:43:58.145Z,1014.6
2017-04-24T06:45:08.726Z,1014.59
2017-04-24T06:46:18.933Z,1014.56
2017-04-24T06:47:28.846Z,1014.56
2017-04-24T06:48:38.750Z,1014.53
2017-04-24T06:49:48.053Z,1014.53
2017-04-24T06:50:57.767Z,1014.51
2017-04-24T06:52:07.364Z,1014.52
2017-04-24T06:53:17.583Z,1014.48
2017-04-24T06:54:27.809Z,1014.46
2017-04-24T06:55:38.033Z,1014.51
2017-04-24T06:56:48.399Z,1014.5
2017-04-24T06:57:58.045Z,1014.45
2017-04-24T06:59:07.689Z,1014.43
2017-04-24T07:00:17.616Z,1014.42
2017-04-24T07:01:27.525Z,1014.41
2017-04-24T07:02:37.795Z,1014.41
2017-04-24T07:03:47.706Z,1014.37
2017-04-24T07:04:57.338Z,1014.36
2017-04-24T07:06:07.250Z,1014.32
2017-04-24T07:07:16.843Z,1014.29
2017-04-24T07:08:27.424Z,1014.27
2017-04-24T07:09:37.633Z,1014.27
2017-04-24T07:10:47.839Z,1014.25
2017-04-24T07:11:58.049Z,1014.21
2017-04-24T07:13:07.952Z,1014.2
2017-04-24T07:14:18.217Z,1014.19
2017-04-24T07:15:27.823Z,1014.17
2017-04-24T07:16:37.431Z,1014.15
2017-04-24T07:17:47.033Z,1014.11
2017-04-24T07:18:56.333Z,1014.06
2017-04-24T07:20:06.391Z,1014.08
2017-04-24T07:21:16.295Z,1014.03
2017-04-24T07:22:26.509Z,1014.04
2017-04-24T07:23:36.402Z,1014.01
2017-04-24T07:24:46.307Z,1014.01
2017-04-24T07:25:56.665Z,1013.99
2017-04-24T07:27:06.570Z,1013.95
2017-04-24T07:28:16.473Z,1013.95
2017-04-24T07:29:26.379Z,1013.91
2017-04-24T07:30:36.578Z,1013.87
2017-04-24T07:31:47.044Z,1013.88
2017-04-24T07:32:56.944Z,1013.9
2017-04-24T07:34:06.862Z,1013.91
2017-04-24T07:35:16.472Z,1013.95
2017-04-24T07:36:26.076Z,1013.89
2017-04-24T07:37:36.450Z,1013.83
2017-04-24T07:38:46.754Z,1013.83
2017-04-24T07:39:56.049Z,1013.81
2017-04-24T07:41:06.335Z,1013.8
2017-04-24T07:42:15.644Z,1013.8
2017-04-24T07:43:25.856Z,1013.71
2017-04-24T07:44:36.080Z,1013.74
2017-04-24T07:45:46.011Z,1013.74
2017-04-24T07:46:56.250Z,1013.72
2017-04-24T07:48:05.865Z,1013.75
2017-04-24T07:49:16.247Z,1013.76
2017-04-24T07:50:26.187Z,1013.74
2017-04-24T07:51:36.407Z,1013.73
2017-04-24T07:52:46.014Z,1013.75
2017-04-24T07:53:55.958Z,1013.71
2017-04-24T07:55:06.027Z,1013.68
2017-04-24T07:56:16.252Z,1013.68
2017-04-24T07:57:26.491Z,1013.62
2017-04-24T07:58:36.724Z,1013.61
2017-04-24T07:59:46.949Z,1013.6
2017-04-24T08:00:57.432Z,1013.56
2017-04-24T08:02:08.062Z,1013.54
2017-04-24T08:03:17.965Z,1013.49
2017-04-24T08:04:28.200Z,1013.53
2017-04-24T08:05:38.130Z,1013.53
2017-04-24T08:06:48.355Z,1013.5
2017-04-24T08:07:58.605Z,1013.44
2017-04-24T08:09:08.526Z,1013.42
2017-04-24T08:10:18.458Z,1013.41
2017-04-24T08:11:28.075Z,1013.42
2017-04-24T08:12:38.668Z,1013.38
2017-04-24T08:13:48.607Z,1013.4
2017-04-24T08:14:58.827Z,1013.36
2017-04-24T08:16:08.744Z,1013.36
2017-04-24T08:17:18.661Z,1013.36
2017-04-24T08:18:28.882Z,1013.32
2017-04-24T08:19:39.110Z,1013.34
2017-04-24T08:20:49.032Z,1013.31
2017-04-24T08:21:58.951Z,1013.3
2017-04-24T08:23:09.168Z,1013.25
2017-04-24T08:24:19.149Z,1013.27
2017-04-24T08:25:29.408Z,1013.28
2017-04-24T08:26:39.312Z,1013.29
2017-04-24T08:27:48.609Z,1013.22
2017-04-24T08:28:58.835Z,1013.23
2017-04-24T08:30:08.595Z,1013.16
2017-04-24T08:31:18.212Z,1013.2
2017-04-24T08:32:28.150Z,1013.18
2017-04-24T08:33:38.105Z,1013.2
2017-04-24T08:34:47.752Z,1013.16
2017-04-24T08:35:58.028Z,1013.09
2017-04-24T08:37:08.253Z,1013.11
2017-04-24T08:38:17.862Z,1013.15
2017-04-24T08:39:27.779Z,1013.13
2017-04-24T08:40:38.048Z,1013.04
2017-04-24T08:41:48.564Z,1013.04
2017-04-24T08:42:58.476Z,1013.05
2017-04-24T08:44:08.083Z,1013.03
2017-04-24T08:45:17.392Z,1012.95
2017-04-24T08:46:27.622Z,1012.91
2017-04-24T08:47:37.794Z,1012.93
2017-04-24T08:48:47.107Z,1012.98
2017-04-24T08:49:56.720Z,1012.98
2017-04-24T08:51:06.339Z,1012.96
2017-04-24T08:52:15.946Z,1012.95
2017-04-24T08:53:25.765Z,1012.9
2017-04-24T08:54:35.476Z,1012.9
2017-04-24T08:55:45.134Z,1012.9
2017-04-24T08:56:55.378Z,1012.87
2017-04-24T08:58:05.305Z,1012.86
2017-04-24T08:59:15.516Z,1012.83
2017-04-24T09:00:25.436Z,1012.81
2017-04-24T09:01:35.347Z,1012.77
2017-04-24T09:02:45.571Z,1012.79
2017-04-24T09:03:54.894Z,1012.73
2017-04-24T09:05:05.463Z,1012.67
2017-04-24T09:06:14.831Z,1012.71
2017-04-24T09:07:25.060Z,1012.71
2017-04-24T09:08:34.704Z,1012.72
2017-04-24T09:09:44.631Z,1012.72
2017-04-24T09:10:55.000Z,1012.74
2017-04-24T09:12:05.233Z,1012.74
2017-04-24T09:13:15.208Z,1012.68
2017-04-24T09:14:25.122Z,1012.68
2017-04-24T09:15:35.053Z,1012.66
2017-04-24T09:16:44.899Z,1012.65
2017-04-24T09:17:54.207Z,1012.69
2017-04-24T09:19:04.107Z,1012.7
2017-04-24T09:20:14.015Z,1012.65
2017-04-24T09:21:24.229Z,1012.66
2017-04-24T09:22:34.792Z,1012.66
2017-04-24T09:23:44.688Z,1012.66
2017-04-24T09:24:54.290Z,1012.67
2017-04-24T09:26:03.886Z,1012.62
2017-04-24T09:27:13.485Z,1012.56
2017-04-24T09:28:24.001Z,1012.57
2017-04-24T09:29:34.222Z,1012.53
2017-04-24T09:30:44.442Z,1012.47
2017-04-24T09:31:54.339Z,1012.46
2017-04-24T09:33:04.248Z,1012.48
2017-04-24T09:34:14.809Z,1012.46
2017-04-24T09:35:24.745Z,1012.44
2017-04-24T09:36:35.348Z,1012.44
2017-04-24T09:37:45.577Z,1012.41
2017-04-24T09:38:55.195Z,1012.37
2017-04-24T09:40:05.722Z,1012.4
2017-04-24T09:41:15.630Z,1012.39
2017-04-24T09:42:25.838Z,1012.38
2017-04-24T09:43:35.130Z,1012.4
2017-04-24T09:44:45.349Z,1012.37
2017-04-24T09:45:55.118Z,1012.3
2017-04-24T09:47:05.029Z,1012.29
2017-04-24T09:48:14.322Z,1012.31
2017-04-24T09:49:24.227Z,1012.28
2017-04-24T09:50:34.134Z,1012.26
2017-04-24T09:51:44.397Z,1012.26
2017-04-24T09:52:54.312Z,1012.23
2017-04-24T09:54:03.923Z,1012.22
2017-04-24T09:55:13.525Z,1012.2
2017-04-24T09:56:23.738Z,1012.18
2017-04-24T09:57:34.251Z,1012.09
2017-04-24T09:58:44.168Z,1012.07
2017-04-24T09:59:54.376Z,1012.1
2017-04-24T10:01:04.289Z,1012.03
2017-04-24T10:02:14.540Z,1012.08
2017-04-24T10:03:24.904Z,1012.05
2017-04-24T10:04:34.512Z,1011.99
2017-04-24T10:05:44.109Z,1011.99
2017-04-24T10:06:53.705Z,1012.01
2017-04-24T10:08:03.605Z,1011.96
2017-04-24T10:09:13.356Z,1011.96
2017-04-24T10:10:23.592Z,1011.93
2017-04-24T10:11:33.214Z,1011.92
2017-04-24T10:12:43.130Z,1011.91
2017-04-24T10:13:53.046Z,1011.91
2017-04-24T10:15:03.580Z,1011.91
2017-04-24T10:16:13.512Z,1011.89
2017-04-24T10:17:23.415Z,1011.89
2017-04-24T10:18:33.015Z,1011.88
2017-04-24T10:19:42.929Z,1011.91
2017-04-24T10:20:52.770Z,1011.83
2017-04-24T10:22:02.670Z,1011.87
2017-04-24T10:23:12.576Z,1011.81
2017-04-24T10:24:22.797Z,1011.79
2017-04-24T10:25:32.710Z,1011.83
2017-04-24T10:26:43.229Z,1011.86
2017-04-24T10:27:53.142Z,1011.82
2017-04-24T10:29:03.353Z,1011.79
2017-04-24T10:30:13.266Z,1011.73
2017-04-24T10:31:22.868Z,1011.73
2017-04-24T10:32:33.083Z,1011.76
2017-04-24T10:33:42.685Z,1011.74
2017-04-24T10:34:52.597Z,1011.73
2017-04-24T10:36:02.189Z,1011.69
2017-04-24T10:37:12.102Z,1011.68
2017-04-24T10:38:22.422Z,1011.67
2017-04-24T10:39:32.639Z,1011.66
2017-04-24T10:40:42.850Z,1011.65
2017-04-24T10:41:53.070Z,1011.59
2017-04-24T10:43:02.986Z,1011.52
2017-04-24T10:44:12.945Z,1011.53
2017-04-24T10:45:22.855Z,1011.48
2017-04-24T10:46:33.074Z,1011.45
2017-04-24T10:47:42.985Z,1011.44
2017-04-24T10:48:53.201Z,1011.47
2017-04-24T10:50:03.568Z,1011.43
2017-04-24T10:51:12.874Z,1011.39
2017-04-24T10:52:22.791Z,1011.39
2017-04-24T10:53:32.093Z,1011.43
2017-04-24T10:54:41.686Z,1011.4
2017-04-24T10:55:51.874Z,1011.38
2017-04-24T10:57:01.769Z,1011.41
2017-04-24T10:58:11.976Z,1011.34
2017-04-24T10:59:21.569Z,1011.28
2017-04-24T11:00:31.483Z,1011.3
2017-04-24T11:01:42.056Z,1011.23
2017-04-24T11:02:51.978Z,1011.22
2017-04-24T11:04:01.591Z,1011.17
2017-04-24T11:05:11.825Z,1011.22
2017-04-24T11:06:21.732Z,1011.18
2017-04-24T11:07:31.584Z,1011.15
2017-04-24T11:08:41.178Z,1011.15
2017-04-24T11:09:51.084Z,1011.08
2017-04-24T11:11:00.373Z,1011.05
2017-04-24T11:12:09.676Z,1011.09
2017-04-24T11:13:19.929Z,1011.07
2017-04-24T11:14:30.142Z,1011.03
2017-04-24T11:15:40.058Z,1010.99
2017-04-24T11:16:49.979Z,1011.01
2017-04-24T11:18:00.193Z,1010.92
2017-04-24T11:19:10.279Z,1010.98
2017-04-24T11:20:20.244Z,1011
2017-04-24T11:21:30.463Z,1010.99
2017-04-24T11:22:40.386Z,1010.85
2017-04-24T11:23:50.284Z,1010.88
2017-04-24T11:25:00.047Z,1010.81
2017-04-24T11:26:09.678Z,1010.83
2017-04-24T11:27:19.587Z,1010.82
2017-04-24T11:28:29.191Z,1010.79
2017-04-24T11:29:38.811Z,1010.79
2017-04-24T11:30:48.965Z,1010.75
2017-04-24T11:31:58.865Z,1010.81
2017-04-24T11:33:08.476Z,1010.8
2017-04-24T11:34:18.710Z,1010.78
2017-04-24T11:35:28.941Z,1010.76
2017-04-24T11:36:38.394Z,1010.72
2017-04-24T11:37:48.296Z,1010.72
2017-04-24T11:38:58.527Z,1010.66
2017-04-24T11:40:08.442Z,1010.7
2017-04-24T11:41:18.359Z,1010.58
2017-04-24T11:42:28.995Z,1010.57
2017-04-24T11:43:39.230Z,1010.57
2017-04-24T11:44:49.472Z,1010.53
2017-04-24T11:45:59.080Z,1010.52
2017-04-24T11:47:09.005Z,1010.54
2017-04-24T11:48:19.543Z,1010.49
2017-04-24T11:49:29.160Z,1010.46
2017-04-24T11:50:39.377Z,1010.42
2017-04-24T11:51:49.282Z,1010.41
2017-04-24T11:52:59.187Z,1010.37
2017-04-24T11:54:09.041Z,1010.3
2017-04-24T11:55:19.297Z,1010.31
2017-04-24T11:56:29.201Z,1010.24
2017-04-24T11:57:39.108Z,1010.29
2017-04-24T11:58:49.330Z,1010.27
2017-04-24T11:59:59.531Z,1010.22
2017-04-24T12:01:09.744Z,1010.15
2017-04-24T12:02:19.658Z,1010.19
2017-04-24T12:03:29.559Z,1010.16
2017-04-24T12:04:39.795Z,1010.09
2017-04-24T12:05:50.130Z,1010.04
2017-04-24T12:07:00.360Z,1010.03
2017-04-24T12:08:10.589Z,1009.99
2017-04-24T12:09:20.519Z,1010
2017-04-24T12:10:30.433Z,1009.97
2017-04-24T12:11:40.498Z,1009.98
2017-04-24T12:12:50.096Z,1009.99
2017-04-24T12:14:00.009Z,1009.93
2017-04-24T12:15:09.635Z,1009.86
2017-04-24T12:16:19.248Z,1009.9
2017-04-24T12:17:29.513Z,1009.91
2017-04-24T12:18:39.115Z,1009.9
2017-04-24T12:19:48.732Z,1009.88
2017-04-24T12:20:58.341Z,1009.88
2017-04-24T12:22:07.956Z,1009.84
2017-04-24T12:23:17.662Z,1009.82
2017-04-24T12:24:27.891Z,1009.82
2017-04-24T12:25:37.488Z,1009.77
2017-04-24T12:26:47.390Z,1009.74
2017-04-24T12:27:57.002Z,1009.68
2017-04-24T12:29:07.189Z,1009.72
2017-04-24T12:30:16.513Z,1009.68
2017-04-24T12:31:26.442Z,1009.69
2017-04-24T12:32:36.084Z,1009.65
2017-04-24T12:33:46.312Z,1009.64
2017-04-24T12:34:56.317Z,1009.64
2017-04-24T12:36:05.934Z,1009.66
2017-04-24T12:37:15.844Z,1009.59
2017-04-24T12:38:25.761Z,1009.54
2017-04-24T12:39:35.666Z,1009.51
2017-04-24T12:40:45.610Z,1009.48
2017-04-24T12:41:55.212Z,1009.44
2017-04-24T12:43:05.432Z,1009.48
2017-04-24T12:44:14.731Z,1009.43
2017-04-24T12:45:24.039Z,1009.38
2017-04-24T12:46:34.213Z,1009.39
2017-04-24T12:47:43.813Z,1009.44
2017-04-24T12:48:53.465Z,1009.4
2017-04-24T12:50:03.705Z,1009.35
2017-04-24T12:51:13.644Z,1009.4
2017-04-24T12:52:23.974Z,1009.35
2017-04-24T12:53:34.199Z,1009.33
2017-04-24T12:54:44.464Z,1009.38
2017-04-24T12:55:54.434Z,1009.34
2017-04-24T12:57:04.669Z,1009.33
2017-04-24T12:58:15.148Z,1009.32
2017-04-24T12:59:24.755Z,1009.27
2017-04-24T13:00:34.983Z,1009.21
2017-04-24T13:01:44.886Z,1009.2
2017-04-24T13:02:54.782Z,1009.21
2017-04-24T13:04:04.193Z,1009.21
2017-04-24T13:05:14.125Z,1009.17
2017-04-24T13:06:24.415Z,1009.11
2017-04-24T13:07:34.648Z,1009.1
2017-04-24T13:08:44.914Z,1008.99
2017-04-24T13:09:55.138Z,1009.02
2017-04-24T13:11:05.093Z,1008.98
2017-04-24T13:12:14.690Z,1009.09
2017-04-24T13:13:24.998Z,1009.06
2017-04-24T13:14:34.654Z,1008.94
2017-04-24T13:15:44.107Z,1008.98
2017-04-24T13:16:54.339Z,1008.96
2017-04-24T13:18:04.286Z,1008.92
2017-04-24T13:19:14.198Z,1008.94
2017-04-24T13:20:23.507Z,1008.89
2017-04-24T13:21:33.987Z,1008.9
2017-04-24T13:22:43.593Z,1008.88
2017-04-24T13:23:53.210Z,1008.85
2017-04-24T13:25:03.448Z,1008.87
2017-04-24T13:26:13.682Z,1008.75
2017-04-24T13:27:24.055Z,1008.78
2017-04-24T13:28:34.286Z,1008.75
2017-04-24T13:29:44.207Z,1008.75
2017-04-24T13:30:53.195Z,1008.72
2017-04-24T13:32:03.123Z,1008.71
2017-04-24T13:33:12.715Z,1008.68
2017-04-24T13:34:22.922Z,1008.6
2017-04-24T13:35:32.540Z,1008.6
2017-04-24T13:36:42.154Z,1008.52
2017-04-24T13:37:52.377Z,1008.47
2017-04-24T13:39:02.621Z,1008.46
2017-04-24T13:40:11.927Z,1008.43
2017-04-24T13:41:21.248Z,1008.43
2017-04-24T13:42:30.858Z,1008.43
2017-04-24T13:43:41.087Z,1008.41
2017-04-24T13:44:51.345Z,1008.34
2017-04-24T13:46:01.589Z,1008.34
2017-04-24T13:47:11.548Z,1008.33
2017-04-24T13:48:21.478Z,1008.32
2017-04-24T13:49:31.425Z,1008.28
2017-04-24T13:50:40.483Z,1008.24
2017-04-24T13:51:49.564Z,1008.15
2017-04-24T13:52:59.161Z,1008.14
2017-04-24T13:54:08.779Z,1008.16
2017-04-24T13:55:18.690Z,1008.15
2017-04-24T13:56:28.973Z,1008.09
2017-04-24T13:57:39.225Z,1008.1
2017-04-24T13:58:48.522Z,1008.04
2017-04-24T13:59:58.744Z,1008.14
2017-04-24T14:01:07.738Z,1008.06
2017-04-24T14:02:17.505Z,1008.03
2017-04-24T14:03:27.401Z,1008.05
2017-04-24T14:04:37.003Z,1008.05
2017-04-24T14:05:46.301Z,1007.96
2017-04-24T14:06:56.210Z,1007.96
2017-04-24T14:08:06.723Z,1007.96
2017-04-24T14:09:16.347Z,1007.94